Etusivu
METAR-TAF:

METAR-TAF

Lentoasemat :

Southamptonin lentoasema

Southampton, Englanti

Leveyspiiri: 50-54N, Pituuspiiri: 001-24W, korkeus merenpinnasta: 9 m

Tämänhetkinen sää

Tämä raportti tehtiin 15 minuuttia sitten, kello 18.20 UTC
Tuuli 6 kn lännestä, vaihdellen lounaan ja lännen/luoteen välillä
Lämpötila 8°C
Kosteus 76%
Ilmanpaine 1000 hPa
Näkyvyys 10 km tai enemmän
Muutamia pilviä 4500 ft:n korkeudessa

METAR: EGHI 121820Z 26006KT 230V290 9999 FEW045 08/04 Q1000

Aika: 18:35 (18:35 UTC)

Sääennuste

Tämä raportti tehtiin 1 tunti ja 39 minuuttia sitten, kello 16.56 UTC
Ennuste voimassa 12. päivästä klo 18 UTC - 12. päivään klo 23 UTC
Tuuli 7 kn lännestä
Näkyvyys 10 km tai enemmän
Hajonneita pilviä 3000 ft:n korkeudessa
Todennäköisyys 30% :
Ajoittain
12. päivästä klo 18 UTC - 12. päivään klo 23 UTC
Näkyvyys: 7000 m
vesikuuroja

TAF: EGHI 121656Z 1218/1223 27007KT 9999 BKN030 PROB30 TEMPO 1218/1223 7000 SHRA

Säähavainnot ja -ennusteet yli 4000 lentoasemalta (METAR- ja TAF-raportit).

Käytössä olevat sääasemat on merkitty karttaan keltaisilla ja punaisilla pisteillä.

Aseta hiiri pisteen päälle nähdäksesi sääaseman nimen.

Klikkaa sitten nähdäksesi säähavainnot ja -ennusteet.

Kartan vaihtaminen: klikkaa mustalla rastilla varustettuja vihreitä pisteitä, niin voit zoomata sisään; viivalla varustettua vihreää pistettä, niin voit zoomata ulos tai vihreitä nuolia, niin pääset viereisille kartoille.


METAR-TAF: